Time,TemperatureF,DewpointF,PressureIn,WindDirection,WindDirectionDegrees,WindSpeedMPH,WindSpeedGustMPH,Humidity,HourlyPrecipIn,Conditions,Clouds,dailyrainin,SoftwareType,DateUTC
2013-01-14 00:00:00,30.6,26.9,30.12,WNW,297,3.0,16.0,86,0.00,,---,0.00,VWS V14.01,2013-01-14 06:00:00,
2013-01-14 00:02:00,30.6,26.9,30.12,West,271,4.0,10.0,86,0.00,,---,0.00,VWS V14.01,2013-01-14 06:02:00,
2013-01-14 00:07:00,30.6,26.9,30.12,West,272,4.0,12.0,86,0.00,,---,0.00,VWS V14.01,2013-01-14 06:07:00,
2013-01-14 00:12:00,30.4,26.4,30.12,West,271,3.0,12.0,85,0.00,,---,0.00,VWS V14.01,2013-01-14 06:12:00,
2013-01-14 00:17:00,30.4,26.7,30.12,West,259,5.0,12.0,86,0.00,,---,0.00,VWS V14.01,2013-01-14 06:17:00,
2013-01-14 00:22:00,30.3,26.3,30.13,West,269,5.0,12.0,85,0.00,,---,0.00,VWS V14.01,2013-01-14 06:22:00,
2013-01-14 00:27:00,30.2,26.2,30.13,WNW,294,6.0,12.0,85,0.00,,---,0.00,VWS V14.01,2013-01-14 06:27:00,
2013-01-14 00:30:00,30.1,25.9,30.14,WNW,291,5.0,12.0,84,0.00,,---,0.00,VWS V14.01,2013-01-14 06:30:00,
2013-01-14 00:32:00,30.1,25.9,30.13,WNW,283,9.0,9.0,84,0.00,,---,0.00,VWS V14.01,2013-01-14 06:32:00,
2013-01-14 00:37:00,30.0,25.8,30.14,West,270,2.0,10.0,84,0.00,,---,0.00,VWS V14.01,2013-01-14 06:37:00,
2013-01-14 00:42:00,29.9,26.0,30.14,NW,307,6.0,10.0,85,0.00,,---,0.00,VWS V14.01,2013-01-14 06:42:00,
2013-01-14 00:47:00,29.8,25.9,30.14,WSW,245,13.0,13.0,85,0.00,,---,0.00,VWS V14.01,2013-01-14 06:47:00,
2013-01-14 00:52:00,29.6,25.4,30.15,NW,307,3.0,15.0,84,0.00,,---,0.00,VWS V14.01,2013-01-14 06:52:00,
2013-01-14 00:57:00,29.4,25.2,30.15,West,279,7.0,15.0,84,0.00,,---,0.00,VWS V14.01,2013-01-14 06:57:00,
2013-01-14 01:00:00,29.4,25.5,30.15,WNW,288,10.0,16.0,85,0.00,,---,0.00,VWS V14.01,2013-01-14 07:00:00,
2013-01-14 01:02:00,29.3,25.1,30.15,West,269,5.0,12.0,84,0.00,,---,0.00,VWS V14.01,2013-01-14 07:02:00,
2013-01-14 01:07:00,29.2,25.3,30.16,West,277,5.0,13.0,85,0.00,,---,0.00,VWS V14.01,2013-01-14 07:07:00,
2013-01-14 01:12:00,29.2,25.3,30.16,WNW,293,2.0,13.0,85,0.00,,---,0.00,VWS V14.01,2013-01-14 07:12:00,
2013-01-14 01:17:00,28.9,24.7,30.17,WNW,284,5.0,14.0,84,0.00,,---,0.00,VWS V14.01,2013-01-14 07:17:00,
2013-01-14 01:22:00,28.8,24.6,30.18,West,281,8.0,14.0,84,0.00,,---,0.00,VWS V14.01,2013-01-14 07:22:00,
2013-01-14 01:27:00,28.6,24.4,30.18,WNW,297,6.0,14.0,84,0.00,,---,0.00,VWS V14.01,2013-01-14 07:27:00,
2013-01-14 01:30:00,28.5,24.3,30.18,West,278,5.0,14.0,84,0.00,,---,0.00,VWS V14.01,2013-01-14 07:30:00,
2013-01-14 01:32:00,28.4,24.2,30.19,WNW,293,8.0,15.0,84,0.00,,---,0.00,VWS V14.01,2013-01-14 07:32:00,
2013-01-14 01:37:00,28.2,23.7,30.19,WNW,290,5.0,15.0,83,0.00,,---,0.00,VWS V14.01,2013-01-14 07:37:00,
2013-01-14 01:42:00,28.1,23.6,30.20,WSW,242,3.0,15.0,83,0.00,,---,0.00,VWS V14.01,2013-01-14 07:42:00,
2013-01-14 01:47:00,27.9,23.1,30.20,West,280,6.0,15.0,82,0.00,,---,0.00,VWS V14.01,2013-01-14 07:47:00,
2013-01-14 01:52:00,27.7,22.9,30.20,WNW,284,6.0,15.0,82,0.00,,---,0.00,VWS V14.01,2013-01-14 07:52:00,
2013-01-14 01:57:00,27.7,23.2,30.21,West,263,6.0,15.0,83,0.00,,---,0.00,VWS V14.01,2013-01-14 07:57:00,
2013-01-14 02:00:00,27.7,23.2,30.21,West,273,6.0,15.0,83,0.00,,---,0.00,VWS V14.01,2013-01-14 08:00:00,
2013-01-14 02:02:00,27.7,23.2,30.21,West,281,5.0,11.0,83,0.00,,---,0.00,VWS V14.01,2013-01-14 08:02:00,
2013-01-14 02:07:00,27.7,23.2,30.22,West,269,7.0,11.0,83,0.00,,---,0.00,VWS V14.01,2013-01-14 08:07:00,
2013-01-14 02:12:00,27.7,23.5,30.22,SW,233,4.0,11.0,84,0.00,,---,0.00,VWS V14.01,2013-01-14 08:12:00,
2013-01-14 02:17:00,27.7,23.2,30.22,WNW,284,1.0,13.0,83,0.00,,---,0.00,VWS V14.01,2013-01-14 08:17:00,
2013-01-14 02:22:00,27.6,23.4,30.22,WNW,288,4.0,13.0,84,0.00,,---,0.00,VWS V14.01,2013-01-14 08:22:00,
2013-01-14 02:27:00,27.5,23.3,30.23,WNW,294,7.0,13.0,84,0.00,,---,0.00,VWS V14.01,2013-01-14 08:27:00,
2013-01-14 02:30:00,27.5,23.3,30.23,West,276,5.0,13.0,84,0.00,,---,0.00,VWS V14.01,2013-01-14 08:30:00,
2013-01-14 02:32:00,27.3,23.1,30.23,West,264,6.0,11.0,84,0.00,,---,0.00,VWS V14.01,2013-01-14 08:32:00,
2013-01-14 02:37:00,27.1,22.9,30.23,WNW,293,7.0,14.0,84,0.00,,---,0.00,VWS V14.01,2013-01-14 08:37:00,
2013-01-14 02:42:00,26.9,22.7,30.23,West,278,6.0,14.0,84,0.00,,---,0.00,VWS V14.01,2013-01-14 08:42:00,
2013-01-14 02:47:00,26.7,22.5,30.24,WNW,285,6.0,14.0,84,0.00,,---,0.00,VWS V14.01,2013-01-14 08:47:00,
2013-01-14 02:52:00,26.5,22.6,30.24,West,276,2.0,14.0,85,0.00,,---,0.00,VWS V14.01,2013-01-14 08:52:00,
2013-01-14 02:57:00,26.3,22.4,30.24,West,276,4.0,14.0,85,0.00,,---,0.00,VWS V14.01,2013-01-14 08:57:00,
2013-01-14 03:00:00,26.3,22.4,30.24,NW,320,6.0,14.0,85,0.00,,---,0.00,VWS V14.01,2013-01-14 09:00:00,
2013-01-14 03:02:00,26.0,22.1,30.24,West,261,6.0,11.0,85,0.00,,---,0.00,VWS V14.01,2013-01-14 09:02:00,
2013-01-14 03:07:00,25.8,21.9,30.25,WNW,297,5.0,12.0,85,0.00,,---,0.00,VWS V14.01,2013-01-14 09:07:00,
2013-01-14 03:12:00,25.6,21.7,30.25,WNW,283,3.0,14.0,85,0.00,,---,0.00,VWS V14.01,2013-01-14 09:12:00,
2013-01-14 03:17:00,25.4,21.5,30.25,West,281,10.0,15.0,85,0.00,,---,0.00,VWS V14.01,2013-01-14 09:17:00,
2013-01-14 03:22:00,25.0,21.1,30.26,West,280,8.0,15.0,85,0.00,,---,0.00,VWS V14.01,2013-01-14 09:22:00,
2013-01-14 03:27:00,25.0,21.4,30.25,NW,309,4.0,15.0,86,0.00,,---,0.00,VWS V14.01,2013-01-14 09:27:00,
2013-01-14 03:30:00,24.9,21.3,30.25,West,278,4.0,15.0,86,0.00,,---,0.00,VWS V14.01,2013-01-14 09:30:00,
2013-01-14 03:32:00,24.8,21.2,30.25,WNW,283,3.0,8.0,86,0.00,,---,0.00,VWS V14.01,2013-01-14 09:32:00,
2013-01-14 03:37:00,24.8,21.2,30.25,WNW,293,9.0,10.0,86,0.00,,---,0.00,VWS V14.01,2013-01-14 09:37:00,
2013-01-14 03:42:00,24.9,21.6,30.26,WNW,293,5.0,12.0,87,0.00,,---,0.00,VWS V14.01,2013-01-14 09:42:00,
2013-01-14 03:47:00,24.9,21.3,30.26,WNW,290,6.0,12.0,86,0.00,,---,0.00,VWS V14.01,2013-01-14 09:47:00,
2013-01-14 03:52:00,24.9,21.6,30.26,West,278,3.0,12.0,87,0.00,,---,0.00,VWS V14.01,2013-01-14 09:52:00,
2013-01-14 03:57:00,24.9,21.3,30.26,West,281,3.0,12.0,86,0.00,,---,0.00,VWS V14.01,2013-01-14 09:57:00,
2013-01-14 04:00:00,24.9,21.3,30.26,WSW,252,5.0,12.0,86,0.00,,---,0.00,VWS V14.01,2013-01-14 10:00:00,
2013-01-14 04:02:00,24.8,21.2,30.26,West,277,9.0,13.0,86,0.00,,---,0.00,VWS V14.01,2013-01-14 10:02:00,
2013-01-14 04:07:00,24.8,21.2,30.26,WSW,245,6.0,13.0,86,0.00,,---,0.00,VWS V14.01,2013-01-14 10:07:00,
2013-01-14 04:12:00,24.8,21.5,30.27,WNW,299,2.0,13.0,87,0.00,,---,0.00,VWS V14.01,2013-01-14 10:12:00,
2013-01-14 04:17:00,24.7,21.1,30.28,West,259,3.0,13.0,86,0.00,,---,0.00,VWS V14.01,2013-01-14 10:17:00,
2013-01-14 04:22:00,24.6,21.0,30.28,NNW,328,3.0,13.0,86,0.00,,---,0.00,VWS V14.01,2013-01-14 10:22:00,
2013-01-14 04:27:00,24.4,20.8,30.28,WNW,285,6.0,13.0,86,0.00,,---,0.00,VWS V14.01,2013-01-14 10:27:00,
2013-01-14 04:30:00,24.4,20.8,30.28,WNW,302,7.0,13.0,86,0.00,,---,0.00,VWS V14.01,2013-01-14 10:30:00,
2013-01-14 04:32:00,24.4,20.5,30.28,WNW,294,5.0,13.0,85,0.00,,---,0.00,VWS V14.01,2013-01-14 10:32:00,
2013-01-14 04:37:00,24.3,20.5,30.29,WNW,283,6.0,13.0,85,0.00,,---,0.00,VWS V14.01,2013-01-14 10:37:00,
2013-01-14 04:42:00,24.3,20.5,30.28,WNW,300,3.0,13.0,85,0.00,,---,0.00,VWS V14.01,2013-01-14 10:42:00,
2013-01-14 04:47:00,24.3,20.7,30.28,West,270,1.0,13.0,86,0.00,,---,0.00,VWS V14.01,2013-01-14 10:47:00,
2013-01-14 04:52:00,24.4,20.8,30.29,West,279,3.0,13.0,86,0.00,,---,0.00,VWS V14.01,2013-01-14 10:52:00,
2013-01-14 04:57:00,24.2,20.4,30.29,WNW,300,4.0,14.0,85,0.00,,---,0.00,VWS V14.01,2013-01-14 10:57:00,
2013-01-14 05:00:00,24.2,20.4,30.29,WNW,302,8.0,14.0,85,0.00,,---,0.00,VWS V14.01,2013-01-14 11:00:00,
2013-01-14 05:02:00,24.1,20.2,30.30,WNW,284,4.0,10.0,85,0.00,,---,0.00,VWS V14.01,2013-01-14 11:02:00,
2013-01-14 05:07:00,24.0,19.9,30.30,West,278,7.0,13.0,84,0.00,,---,0.00,VWS V14.01,2013-01-14 11:07:00,
2013-01-14 05:12:00,24.0,19.9,30.30,West,263,4.0,13.0,84,0.00,,---,0.00,VWS V14.01,2013-01-14 11:12:00,
2013-01-14 05:17:00,24.0,19.9,30.30,WSW,253,7.0,13.0,84,0.00,,---,0.00,VWS V14.01,2013-01-14 11:17:00,
2013-01-14 05:22:00,23.9,19.8,30.31,NW,304,11.0,13.0,84,0.00,,---,0.00,VWS V14.01,2013-01-14 11:22:00,
2013-01-14 05:27:00,23.9,19.8,30.31,WSW,242,6.0,13.0,84,0.00,,---,0.00,VWS V14.01,2013-01-14 11:27:00,
2013-01-14 05:30:00,23.9,19.8,30.31,West,269,4.0,13.0,84,0.00,,---,0.00,VWS V14.01,2013-01-14 11:30:00,
2013-01-14 05:32:00,23.9,19.8,30.31,West,269,5.0,8.0,84,0.00,,---,0.00,VWS V14.01,2013-01-14 11:32:00,
2013-01-14 05:37:00,23.8,19.7,30.31,West,266,3.0,8.0,84,0.00,,---,0.00,VWS V14.01,2013-01-14 11:37:00,
2013-01-14 05:42:00,23.8,19.7,30.32,NW,310,3.0,10.0,84,0.00,,---,0.00,VWS V14.01,2013-01-14 11:42:00,
2013-01-14 05:47:00,23.7,19.6,30.32,West,267,2.0,10.0,84,0.00,,---,0.00,VWS V14.01,2013-01-14 11:47:00,
2013-01-14 05:52:00,23.6,19.5,30.32,WNW,290,1.0,10.0,84,0.00,,---,0.00,VWS V14.01,2013-01-14 11:52:00,
2013-01-14 05:57:00,23.4,19.3,30.32,WNW,284,2.0,10.0,84,0.00,,---,0.00,VWS V14.01,2013-01-14 11:57:00,
2013-01-14 06:00:00,23.5,19.7,30.32,WNW,302,2.0,10.0,85,0.00,,---,0.00,VWS V14.01,2013-01-14 12:00:00,
2013-01-14 06:02:00,23.5,19.7,30.33,WSW,256,3.0,7.0,85,0.00,,---,0.00,VWS V14.01,2013-01-14 12:02:00,
2013-01-14 06:07:00,23.4,19.3,30.33,West,267,3.0,9.0,84,0.00,,---,0.00,VWS V14.01,2013-01-14 12:07:00,
2013-01-14 06:12:00,23.4,19.3,30.33,WSW,240,2.0,9.0,84,0.00,,---,0.00,VWS V14.01,2013-01-14 12:12:00,
2013-01-14 06:17:00,23.5,19.7,30.34,WNW,287,2.0,9.0,85,0.00,,---,0.00,VWS V14.01,2013-01-14 12:17:00,
2013-01-14 06:22:00,23.3,19.2,30.34,West,275,4.0,10.0,84,0.00,,---,0.00,VWS V14.01,2013-01-14 12:22:00,
2013-01-14 06:27:00,23.2,19.1,30.34,WNW,302,4.0,10.0,84,0.00,,---,0.00,VWS V14.01,2013-01-14 12:27:00,
2013-01-14 06:30:00,23.2,19.1,30.34,WNW,283,3.0,10.0,84,0.00,,---,0.00,VWS V14.01,2013-01-14 12:30:00,
2013-01-14 06:32:00,23.3,19.5,30.34,West,266,1.0,6.0,85,0.00,,---,0.00,VWS V14.01,2013-01-14 12:32:00,
2013-01-14 06:37:00,23.4,19.6,30.35,West,269,2.0,9.0,85,0.00,,---,0.00,VWS V14.01,2013-01-14 12:37:00,
2013-01-14 06:42:00,23.5,19.7,30.35,WNW,287,1.0,9.0,85,0.00,,---,0.00,VWS V14.01,2013-01-14 12:42:00,
2013-01-14 06:47:00,23.5,19.7,30.36,NW,315,4.0,9.0,85,0.00,,---,0.00,VWS V14.01,2013-01-14 12:47:00,
2013-01-14 06:52:00,23.4,19.6,30.36,WNW,294,5.0,9.0,85,0.00,,---,0.00,VWS V14.01,2013-01-14 12:52:00,
2013-01-14 06:57:00,23.3,19.2,30.37,WNW,302,5.0,10.0,84,0.00,,---,0.00,VWS V14.01,2013-01-14 12:57:00,
2013-01-14 07:00:00,23.2,19.1,30.37,West,263,6.0,10.0,84,0.00,,---,0.00,VWS V14.01,2013-01-14 13:00:00,
2013-01-14 07:02:00,23.1,19.0,30.37,NW,323,4.0,7.0,84,0.00,,---,0.00,VWS V14.01,2013-01-14 13:02:00,
2013-01-14 07:07:00,23.0,18.9,30.38,WNW,293,3.0,7.0,84,0.00,,---,0.00,VWS V14.01,2013-01-14 13:07:00,
2013-01-14 07:12:00,23.1,19.3,30.38,WNW,283,1.0,7.0,85,0.00,,---,0.00,VWS V14.01,2013-01-14 13:12:00,
2013-01-14 07:17:00,23.0,18.9,30.38,West,277,3.0,7.0,84,0.00,,---,0.00,VWS V14.01,2013-01-14 13:17:00,
2013-01-14 07:22:00,23.0,18.9,30.38,WSW,255,6.0,7.0,84,0.00,,---,0.00,VWS V14.01,2013-01-14 13:22:00,
2013-01-14 07:27:00,23.1,19.3,30.39,WNW,283,2.0,7.0,85,0.00,,---,0.00,VWS V14.01,2013-01-14 13:27:00,
2013-01-14 07:30:00,23.1,19.3,30.39,West,262,4.0,7.0,85,0.00,,---,0.00,VWS V14.01,2013-01-14 13:30:00,
2013-01-14 07:32:00,23.2,19.4,30.39,WSW,250,4.0,6.0,85,0.00,,---,0.00,VWS V14.01,2013-01-14 13:32:00,
2013-01-14 07:37:00,23.1,19.0,30.39,WNW,294,3.0,9.0,84,0.00,,---,0.00,VWS V14.01,2013-01-14 13:37:00,
2013-01-14 07:42:00,23.1,19.0,30.39,West,277,3.0,9.0,84,0.00,,---,0.00,VWS V14.01,2013-01-14 13:42:00,
2013-01-14 07:47:00,23.1,18.7,30.40,West,281,3.0,9.0,83,0.00,,---,0.00,VWS V14.01,2013-01-14 13:47:00,
2013-01-14 07:52:00,23.1,19.0,30.39,WNW,287,3.0,9.0,84,0.00,,---,0.00,VWS V14.01,2013-01-14 13:52:00,
2013-01-14 07:57:00,23.2,19.1,30.40,WSW,255,3.0,9.0,84,0.00,,---,0.00,VWS V14.01,2013-01-14 13:57:00,
2013-01-14 08:00:00,23.2,19.1,30.40,West,274,1.0,9.0,84,0.00,,---,0.00,VWS V14.01,2013-01-14 14:00:00,
2013-01-14 08:02:00,23.2,19.1,30.40,SW,222,3.0,4.0,84,0.00,,---,0.00,VWS V14.01,2013-01-14 14:02:00,
2013-01-14 08:07:00,23.3,19.2,30.40,WNW,293,2.0,5.0,84,0.00,,---,0.00,VWS V14.01,2013-01-14 14:07:00,
2013-01-14 08:12:00,23.4,19.3,30.41,NW,305,3.0,5.0,84,0.00,,---,0.00,VWS V14.01,2013-01-14 14:12:00,
2013-01-14 08:17:00,23.5,19.7,30.41,NW,316,2.0,5.0,85,0.00,,---,0.00,VWS V14.01,2013-01-14 14:17:00,
2013-01-14 08:22:00,23.5,19.4,30.41,WNW,283,3.0,9.0,84,0.00,,---,0.00,VWS V14.01,2013-01-14 14:22:00,
2013-01-14 08:27:00,23.5,19.4,30.42,WNW,302,1.0,9.0,84,0.00,,---,0.00,VWS V14.01,2013-01-14 14:27:00,
2013-01-14 08:30:00,23.5,19.1,30.42,NW,318,2.0,9.0,83,0.00,,---,0.00,VWS V14.01,2013-01-14 14:30:00,
2013-01-14 08:32:00,23.5,19.1,30.42,NW,324,4.0,9.0,83,0.00,,---,0.00,VWS V14.01,2013-01-14 14:32:00,
2013-01-14 08:37:00,23.4,18.7,30.42,WNW,287,2.0,10.0,82,0.00,,---,0.00,VWS V14.01,2013-01-14 14:37:00,
2013-01-14 08:42:00,23.3,18.6,30.42,West,277,4.0,10.0,82,0.00,,---,0.00,VWS V14.01,2013-01-14 14:42:00,
2013-01-14 08:47:00,23.3,18.6,30.43,WNW,285,3.0,10.0,82,0.00,,---,0.00,VWS V14.01,2013-01-14 14:47:00,
2013-01-14 08:52:00,23.4,18.7,30.43,West,269,2.0,10.0,82,0.00,,---,0.00,VWS V14.01,2013-01-14 14:52:00,
2013-01-14 08:57:00,23.4,18.7,30.43,WNW,301,7.0,10.0,82,0.00,,---,0.00,VWS V14.01,2013-01-14 14:57:00,
2013-01-14 09:00:00,23.4,18.7,30.43,WNW,302,5.0,10.0,82,0.00,,---,0.00,VWS V14.01,2013-01-14 15:00:00,
2013-01-14 09:02:00,23.5,18.8,30.43,WNW,300,8.0,8.0,82,0.00,,---,0.00,VWS V14.01,2013-01-14 15:02:00,
2013-01-14 09:07:00,23.6,18.9,30.43,West,267,5.0,8.0,82,0.00,,---,0.00,VWS V14.01,2013-01-14 15:07:00,
2013-01-14 09:12:00,23.7,19.3,30.43,West,264,5.0,8.0,83,0.00,,---,0.00,VWS V14.01,2013-01-14 15:12:00,
2013-01-14 09:17:00,23.9,19.5,30.43,West,262,2.0,8.0,83,0.00,,---,0.00,VWS V14.01,2013-01-14 15:17:00,
2013-01-14 09:22:00,24.0,19.3,30.43,NW,320,0.0,8.0,82,0.00,,---,0.00,VWS V14.01,2013-01-14 15:22:00,
2013-01-14 09:27:00,24.0,19.3,30.43,West,276,1.0,8.0,82,0.00,,---,0.00,VWS V14.01,2013-01-14 15:27:00,
2013-01-14 09:30:00,24.0,19.3,30.43,WNW,284,3.0,8.0,82,0.00,,---,0.00,VWS V14.01,2013-01-14 15:30:00,
2013-01-14 09:32:00,24.0,19.0,30.43,WSW,256,2.0,6.0,81,0.00,,---,0.00,VWS V14.01,2013-01-14 15:32:00,
2013-01-14 09:37:00,24.1,19.1,30.43,West,276,3.0,6.0,81,0.00,,---,0.00,VWS V14.01,2013-01-14 15:37:00,
2013-01-14 09:42:00,24.1,19.1,30.43,WNW,300,2.0,6.0,81,0.00,,---,0.00,VWS V14.01,2013-01-14 15:42:00,
2013-01-14 09:47:00,24.2,19.2,30.43,WNW,289,2.0,6.0,81,0.00,,---,0.00,VWS V14.01,2013-01-14 15:47:00,
2013-01-14 09:52:00,24.2,19.2,30.43,WNW,294,3.0,6.0,81,0.00,,---,0.00,VWS V14.01,2013-01-14 15:52:00,
2013-01-14 09:57:00,24.3,19.3,30.43,WSW,256,3.0,6.0,81,0.00,,---,0.00,VWS V14.01,2013-01-14 15:57:00,
2013-01-14 10:00:00,24.3,19.3,30.43,WNW,288,5.0,6.0,81,0.00,,---,0.00,VWS V14.01,2013-01-14 16:00:00,
2013-01-14 10:02:00,24.3,19.6,30.43,NNW,334,3.0,6.0,82,0.00,,---,0.00,VWS V14.01,2013-01-14 16:02:00,
2013-01-14 10:07:00,24.3,19.6,30.43,WNW,283,5.0,6.0,82,0.00,,---,0.00,VWS V14.01,2013-01-14 16:07:00,
2013-01-14 10:12:00,24.4,19.7,30.43,NNE,18,0.0,6.0,82,0.00,,---,0.00,VWS V14.01,2013-01-14 16:12:00,
2013-01-14 10:17:00,24.5,19.5,30.43,WNW,283,0.0,6.0,81,0.00,,---,0.00,VWS V14.01,2013-01-14 16:17:00,
2013-01-14 10:22:00,24.5,19.2,30.43,North,8,2.0,6.0,80,0.00,,---,0.00,VWS V14.01,2013-01-14 16:22:00,
2013-01-14 10:27:00,24.6,19.3,30.43,WNW,285,1.0,6.0,80,0.00,,---,0.00,VWS V14.01,2013-01-14 16:27:00,
2013-01-14 10:30:00,24.7,19.4,30.43,ESE,118,1.0,6.0,80,0.00,,---,0.00,VWS V14.01,2013-01-14 16:30:00,
2013-01-14 10:32:00,24.9,19.6,30.43,WNW,301,2.0,2.0,80,0.00,,---,0.00,VWS V14.01,2013-01-14 16:32:00,
2013-01-14 10:37:00,24.9,19.0,30.42,NW,309,0.0,2.0,78,0.00,,---,0.00,VWS V14.01,2013-01-14 16:37:00,
2013-01-14 10:42:00,24.8,18.9,30.41,NNW,342,1.0,3.0,78,0.00,,---,0.00,VWS V14.01,2013-01-14 16:42:00,
2013-01-14 10:47:00,24.7,18.2,30.41,NW,311,1.0,5.0,76,0.00,,---,0.00,VWS V14.01,2013-01-14 16:47:00,
2013-01-14 10:52:00,24.7,18.8,30.41,NW,315,1.0,5.0,78,0.00,,---,0.00,VWS V14.01,2013-01-14 16:52:00,
2013-01-14 10:57:00,24.7,18.5,30.41,WNW,290,2.0,5.0,77,0.00,,---,0.00,VWS V14.01,2013-01-14 16:57:00,
2013-01-14 11:00:00,24.7,18.5,30.41,West,278,3.0,5.0,77,0.00,,---,0.00,VWS V14.01,2013-01-14 17:00:00,
2013-01-14 11:02:00,24.7,18.5,30.40,West,269,1.0,3.0,77,0.00,,---,0.00,VWS V14.01,2013-01-14 17:02:00,
2013-01-14 11:07:00,24.6,18.7,30.40,WNW,300,3.0,4.0,78,0.00,,---,0.00,VWS V14.01,2013-01-14 17:07:00,
2013-01-14 11:12:00,24.7,19.1,30.40,West,281,1.0,4.0,79,0.00,,---,0.00,VWS V14.01,2013-01-14 17:12:00,
2013-01-14 11:17:00,24.8,19.2,30.40,NE,56,1.0,4.0,79,0.00,,---,0.00,VWS V14.01,2013-01-14 17:17:00,
2013-01-14 11:21:00,24.8,19.2,30.40,WNW,288,0.0,4.0,79,0.00,,---,0.00,VWS V14.01,2013-01-14 17:21:00,
2013-01-14 11:26:00,24.8,18.9,30.39,NW,309,2.0,4.0,78,0.00,,---,0.00,VWS V14.01,2013-01-14 17:26:00,
2013-01-14 11:30:00,24.9,19.3,30.39,NNW,327,1.0,4.0,79,0.00,,---,0.00,VWS V14.01,2013-01-14 17:30:00,
2013-01-14 11:31:00,25.0,18.8,30.39,NNW,334,3.0,3.0,77,0.00,,---,0.00,VWS V14.01,2013-01-14 17:31:00,
2013-01-14 11:36:00,25.1,18.6,30.40,NNW,334,2.0,3.0,76,0.00,,---,0.00,VWS V14.01,2013-01-14 17:36:00,
2013-01-14 11:41:00,25.1,18.6,30.40,West,276,0.0,5.0,76,0.00,,---,0.00,VWS V14.01,2013-01-14 17:41:00,
2013-01-14 11:46:00,25.1,17.7,30.40,West,262,2.0,5.0,73,0.00,,---,0.00,VWS V14.01,2013-01-14 17:46:00,
2013-01-14 11:51:00,25.5,18.7,30.39,SW,233,2.0,5.0,75,0.00,,---,0.00,VWS V14.01,2013-01-14 17:51:00,
2013-01-14 11:56:00,25.9,18.5,30.38,SSW,212,1.0,5.0,73,0.00,,---,0.00,VWS V14.01,2013-01-14 17:56:00,
2013-01-14 12:00:00,25.9,18.1,30.38,SW,217,0.0,5.0,72,0.00,,---,0.00,VWS V14.01,2013-01-14 18:00:00,
2013-01-14 12:01:00,25.9,18.8,30.38,SSE,160,0.0,1.0,74,0.00,,---,0.00,VWS V14.01,2013-01-14 18:01:00,
2013-01-14 12:06:00,25.9,18.1,30.38,NW,321,2.0,5.0,72,0.00,,---,0.00,VWS V14.01,2013-01-14 18:06:00,
2013-01-14 12:11:00,25.7,18.3,30.39,West,279,3.0,5.0,73,0.00,,---,0.00,VWS V14.01,2013-01-14 18:11:00,
2013-01-14 12:16:00,25.6,17.8,30.40,SW,225,3.0,6.0,72,0.00,,---,0.00,VWS V14.01,2013-01-14 18:16:00,
2013-01-14 12:21:00,25.5,18.1,30.40,SW,231,2.0,6.0,73,0.00,,---,0.00,VWS V14.01,2013-01-14 18:21:00,
2013-01-14 12:26:00,25.4,18.3,30.40,West,276,2.0,6.0,74,0.00,,---,0.00,VWS V14.01,2013-01-14 18:26:00,
2013-01-14 12:30:00,25.4,18.0,30.40,West,273,1.0,6.0,73,0.00,,---,0.00,VWS V14.01,2013-01-14 18:30:00,
2013-01-14 12:31:00,25.4,18.3,30.41,WNW,283,0.0,2.0,74,0.00,,---,0.00,VWS V14.01,2013-01-14 18:31:00,
2013-01-14 12:36:00,25.8,19.0,30.40,NW,307,1.0,2.0,75,0.00,,---,0.00,VWS V14.01,2013-01-14 18:36:00,
2013-01-14 12:41:00,25.7,17.9,30.40,NE,52,1.0,2.0,72,0.00,,---,0.00,VWS V14.01,2013-01-14 18:41:00,
2013-01-14 12:46:00,25.8,18.4,30.41,West,266,2.0,3.0,73,0.00,,---,0.00,VWS V14.01,2013-01-14 18:46:00,
2013-01-14 12:51:00,25.9,18.1,30.42,WSW,252,2.0,5.0,72,0.00,,---,0.00,VWS V14.01,2013-01-14 18:51:00,
2013-01-14 12:56:00,25.9,18.1,30.42,West,274,2.0,6.0,72,0.00,,---,0.00,VWS V14.01,2013-01-14 18:56:00,
2013-01-14 13:00:00,25.8,18.0,30.42,WNW,287,4.0,6.0,72,0.00,,---,0.00,VWS V14.01,2013-01-14 19:00:00,
2013-01-14 13:01:00,25.7,17.6,30.42,NW,311,2.0,5.0,71,0.00,,---,0.00,VWS V14.01,2013-01-14 19:01:00,
2013-01-14 13:06:00,25.5,17.4,30.42,WNW,297,1.0,5.0,71,0.00,,---,0.00,VWS V14.01,2013-01-14 19:06:00,
2013-01-14 13:11:00,25.5,18.1,30.41,WNW,284,0.0,5.0,73,0.00,,---,0.00,VWS V14.01,2013-01-14 19:11:00,
2013-01-14 13:16:00,25.7,18.6,30.41,North,358,1.0,5.0,74,0.00,,---,0.00,VWS V14.01,2013-01-14 19:16:00,
2013-01-14 13:21:00,25.7,17.9,30.41,West,278,0.0,5.0,72,0.00,,---,0.00,VWS V14.01,2013-01-14 19:21:00,
2013-01-14 13:26:00,25.6,18.2,30.41,WNW,287,1.0,5.0,73,0.00,,---,0.00,VWS V14.01,2013-01-14 19:26:00,
2013-01-14 13:30:00,25.7,18.3,30.41,WNW,297,1.0,5.0,73,0.00,,---,0.00,VWS V14.01,2013-01-14 19:30:00,
2013-01-14 13:31:00,25.7,18.3,30.41,NW,316,0.0,5.0,73,0.00,,---,0.00,VWS V14.01,2013-01-14 19:31:00,
2013-01-14 13:36:00,25.7,18.3,30.42,WNW,302,1.0,5.0,73,0.00,,---,0.00,VWS V14.01,2013-01-14 19:36:00,
2013-01-14 13:41:00,25.9,18.5,30.42,WNW,297,1.0,5.0,73,0.00,,---,0.00,VWS V14.01,2013-01-14 19:41:00,
2013-01-14 13:46:00,25.9,18.5,30.42,SW,225,1.0,5.0,73,0.00,,---,0.00,VWS V14.01,2013-01-14 19:46:00,
2013-01-14 13:51:00,26.0,18.9,30.42,NW,315,1.0,5.0,74,0.00,,---,0.00,VWS V14.01,2013-01-14 19:51:00,
2013-01-14 13:56:00,26.0,18.5,30.43,West,274,2.0,7.0,73,0.00,,---,0.00,VWS V14.01,2013-01-14 19:56:00,
2013-01-14 14:00:00,25.9,18.1,30.43,West,279,1.0,7.0,72,0.00,,---,0.00,VWS V14.01,2013-01-14 20:00:00,
2013-01-14 14:01:00,25.9,18.5,30.43,WNW,290,0.0,3.0,73,0.00,,---,0.00,VWS V14.01,2013-01-14 20:01:00,
2013-01-14 14:06:00,25.9,18.5,30.43,WNW,283,3.0,3.0,73,0.00,,---,0.00,VWS V14.01,2013-01-14 20:06:00,
2013-01-14 14:11:00,25.9,19.1,30.43,West,267,1.0,3.0,75,0.00,,---,0.00,VWS V14.01,2013-01-14 20:11:00,
2013-01-14 14:16:00,25.9,18.5,30.43,WNW,283,1.0,5.0,73,0.00,,---,0.00,VWS V14.01,2013-01-14 20:16:00,
2013-01-14 14:21:00,25.8,18.4,30.43,WSW,256,2.0,5.0,73,0.00,,---,0.00,VWS V14.01,2013-01-14 20:21:00,
2013-01-14 14:26:00,25.9,18.5,30.43,NNW,328,2.0,6.0,73,0.00,,---,0.00,VWS V14.01,2013-01-14 20:26:00,
2013-01-14 14:30:00,25.9,18.5,30.43,NNW,328,0.0,6.0,73,0.00,,---,0.00,VWS V14.01,2013-01-14 20:30:00,
2013-01-14 14:31:00,26.1,18.6,30.43,NNE,23,0.0,2.0,73,0.00,,---,0.00,VWS V14.01,2013-01-14 20:31:00,
2013-01-14 14:36:00,25.9,18.1,30.45,West,265,2.0,3.0,72,0.00,,---,0.00,VWS V14.01,2013-01-14 20:36:00,
2013-01-14 14:41:00,25.9,18.8,30.45,WNW,291,3.0,3.0,74,0.00,,---,0.00,VWS V14.01,2013-01-14 20:41:00,
2013-01-14 14:46:00,25.9,18.8,30.46,WSW,252,0.0,3.0,74,0.00,,---,0.00,VWS V14.01,2013-01-14 20:46:00,
2013-01-14 14:51:00,25.9,18.8,30.46,SSW,212,1.0,3.0,74,0.00,,---,0.00,VWS V14.01,2013-01-14 20:51:00,
2013-01-14 14:56:00,25.8,18.7,30.46,SW,236,2.0,3.0,74,0.00,,---,0.00,VWS V14.01,2013-01-14 20:56:00,
2013-01-14 15:00:00,25.9,18.8,30.46,West,271,3.0,3.0,74,0.00,,---,0.00,VWS V14.01,2013-01-14 21:00:00,
2013-01-14 15:01:00,25.9,18.8,30.47,NNW,333,2.0,4.0,74,0.00,,---,0.00,VWS V14.01,2013-01-14 21:01:00,
2013-01-14 15:06:00,25.9,19.1,30.48,West,274,1.0,4.0,75,0.00,,---,0.00,VWS V14.01,2013-01-14 21:06:00,
2013-01-14 15:11:00,25.9,18.8,30.47,West,273,2.0,5.0,74,0.00,,---,0.00,VWS V14.01,2013-01-14 21:11:00,
2013-01-14 15:16:00,25.9,18.8,30.47,West,266,0.0,5.0,74,0.00,,---,0.00,VWS V14.01,2013-01-14 21:16:00,
2013-01-14 15:21:00,25.9,18.8,30.46,West,280,1.0,5.0,74,0.00,,---,0.00,VWS V14.01,2013-01-14 21:21:00,
2013-01-14 15:26:00,25.8,18.4,30.48,WNW,290,0.0,5.0,73,0.00,,---,0.00,VWS V14.01,2013-01-14 21:26:00,
2013-01-14 15:30:00,25.9,18.8,30.47,West,274,0.0,5.0,74,0.00,,---,0.00,VWS V14.01,2013-01-14 21:30:00,
2013-01-14 15:31:00,25.9,18.8,30.47,West,278,0.0,3.0,74,0.00,,---,0.00,VWS V14.01,2013-01-14 21:31:00,
2013-01-14 15:36:00,25.8,18.7,30.46,WNW,283,0.0,3.0,74,0.00,,---,0.00,VWS V14.01,2013-01-14 21:36:00,
2013-01-14 15:41:00,25.9,19.1,30.47,WSW,240,1.0,3.0,75,0.00,,---,0.00,VWS V14.01,2013-01-14 21:41:00,
2013-01-14 15:46:00,25.8,18.7,30.47,WSW,239,1.0,5.0,74,0.00,,---,0.00,VWS V14.01,2013-01-14 21:46:00,
2013-01-14 15:51:00,25.9,19.4,30.48,WNW,297,2.0,5.0,76,0.00,,---,0.00,VWS V14.01,2013-01-14 21:51:00,
2013-01-14 15:56:00,25.8,19.3,30.48,West,280,3.0,5.0,76,0.00,,---,0.00,VWS V14.01,2013-01-14 21:56:00,
2013-01-14 16:00:00,25.8,19.3,30.48,WNW,288,1.0,5.0,76,0.00,,---,0.00,VWS V14.01,2013-01-14 22:00:00,
2013-01-14 16:01:00,25.7,19.2,30.48,WNW,285,1.0,3.0,76,0.00,,---,0.00,VWS V14.01,2013-01-14 22:01:00,
2013-01-14 16:06:00,25.7,19.2,30.48,WSW,256,2.0,3.0,76,0.00,,---,0.00,VWS V14.01,2013-01-14 22:06:00,
2013-01-14 16:11:00,25.7,19.5,30.47,West,280,0.0,3.0,77,0.00,,---,0.00,VWS V14.01,2013-01-14 22:11:00,
2013-01-14 16:16:00,25.7,19.5,30.48,NW,307,1.0,3.0,77,0.00,,---,0.00,VWS V14.01,2013-01-14 22:16:00,
2013-01-14 16:21:00,25.6,19.4,30.47,West,277,1.0,3.0,77,0.00,,---,0.00,VWS V14.01,2013-01-14 22:21:00,
2013-01-14 16:26:00,25.5,19.3,30.48,NW,308,2.0,3.0,77,0.00,,---,0.00,VWS V14.01,2013-01-14 22:26:00,
2013-01-14 16:30:00,25.5,19.0,30.48,WNW,293,0.0,3.0,76,0.00,,---,0.00,VWS V14.01,2013-01-14 22:30:00,
2013-01-14 16:31:00,25.4,18.9,30.48,WNW,294,0.0,1.0,76,0.00,,---,0.00,VWS V14.01,2013-01-14 22:31:00,
2013-01-14 16:36:00,25.4,19.2,30.48,West,269,1.0,2.0,77,0.00,,---,0.00,VWS V14.01,2013-01-14 22:36:00,
2013-01-14 16:41:00,25.4,19.2,30.48,WSW,246,0.0,2.0,77,0.00,,---,0.00,VWS V14.01,2013-01-14 22:41:00,
2013-01-14 16:46:00,25.5,19.6,30.47,WSW,256,0.0,2.0,78,0.00,,---,0.00,VWS V14.01,2013-01-14 22:46:00,
2013-01-14 16:51:00,25.5,19.6,30.47,WSW,255,0.0,2.0,78,0.00,,---,0.00,VWS V14.01,2013-01-14 22:51:00,
2013-01-14 16:56:00,25.4,19.5,30.47,NW,322,0.0,2.0,78,0.00,,---,0.00,VWS V14.01,2013-01-14 22:56:00,
2013-01-14 17:00:00,25.4,19.5,30.46,NNW,343,0.0,2.0,78,0.00,,---,0.00,VWS V14.01,2013-01-14 23:00:00,
2013-01-14 17:01:00,25.4,19.5,30.46,WNW,283,3.0,3.0,78,0.00,,---,0.00,VWS V14.01,2013-01-14 23:01:00,
2013-01-14 17:06:00,25.3,19.4,30.47,WNW,288,0.0,4.0,78,0.00,,---,0.00,VWS V14.01,2013-01-14 23:06:00,
2013-01-14 17:11:00,25.3,19.4,30.47,NW,323,3.0,4.0,78,0.00,,---,0.00,VWS V14.01,2013-01-14 23:11:00,
2013-01-14 17:16:00,25.3,19.7,30.46,West,278,0.0,4.0,79,0.00,,---,0.00,VWS V14.01,2013-01-14 23:16:00,
2013-01-14 17:21:00,25.3,19.7,30.46,NNE,15,0.0,4.0,79,0.00,,---,0.00,VWS V14.01,2013-01-14 23:21:00,
2013-01-14 17:26:00,25.3,19.7,30.46,North,356,1.0,4.0,79,0.00,,---,0.00,VWS V14.01,2013-01-14 23:26:00,
2013-01-14 17:30:00,25.0,19.7,30.44,WNW,284,0.0,2.0,80,0.00,,---,0.00,VWS V14.01,2013-01-14 23:30:00,
2013-01-14 17:31:00,25.2,19.6,30.45,North,352,0.0,0.0,79,0.00,,---,0.00,VWS V14.01,2013-01-14 23:31:00,
2013-01-14 17:36:00,25.2,19.6,30.46,West,277,0.0,1.0,79,0.00,,---,0.00,VWS V14.01,2013-01-14 23:36:00,
2013-01-14 17:41:00,25.2,19.6,30.46,West,273,0.0,2.0,79,0.00,,---,0.00,VWS V14.01,2013-01-14 23:41:00,
2013-01-14 17:46:00,25.2,19.6,30.46,NNW,330,0.0,2.0,79,0.00,,---,0.00,VWS V14.01,2013-01-14 23:46:00,
2013-01-14 17:51:00,25.2,19.6,30.45,WNW,297,0.0,3.0,79,0.00,,---,0.00,VWS V14.01,2013-01-14 23:51:00,
2013-01-14 17:56:00,25.2,19.6,30.45,WNW,300,2.0,3.0,79,0.00,,---,0.00,VWS V14.01,2013-01-14 23:56:00,
2013-01-14 18:00:00,25.2,19.9,30.46,NNW,347,0.0,3.0,80,0.00,,---,0.00,VWS V14.01,2013-01-15 00:00:00,
2013-01-14 18:01:00,25.1,19.8,30.45,South,177,0.0,2.0,80,0.00,,---,0.00,VWS V14.01,2013-01-15 00:01:00,
2013-01-14 18:06:00,25.1,19.8,30.45,NW,312,0.0,2.0,80,0.00,,---,0.00,VWS V14.01,2013-01-15 00:06:00,
2013-01-14 18:11:00,25.1,19.8,30.45,NW,309,0.0,2.0,80,0.00,,---,0.00,VWS V14.01,2013-01-15 00:11:00,
2013-01-14 18:16:00,25.1,19.8,30.45,WSW,257,0.0,2.0,80,0.00,,---,0.00,VWS V14.01,2013-01-15 00:16:00,
2013-01-14 18:21:00,25.1,19.8,30.45,WNW,282,0.0,2.0,80,0.00,,---,0.00,VWS V14.01,2013-01-15 00:21:00,
2013-01-14 18:26:00,25.1,19.8,30.44,WNW,283,0.0,2.0,80,0.00,,---,0.00,VWS V14.01,2013-01-15 00:26:00,
2013-01-14 18:30:00,25.0,19.7,30.44,WNW,284,0.0,2.0,80,0.00,,---,0.00,VWS V14.01,2013-01-15 00:30:00,
2013-01-14 18:31:00,25.0,19.7,30.44,West,278,1.0,2.0,80,0.00,,---,0.00,VWS V14.01,2013-01-15 00:31:00,
2013-01-14 18:36:00,25.0,19.7,30.45,WNW,297,0.0,2.0,80,0.00,,---,0.00,VWS V14.01,2013-01-15 00:36:00,
2013-01-14 18:41:00,25.0,19.7,30.44,West,270,0.0,2.0,80,0.00,,---,0.00,VWS V14.01,2013-01-15 00:41:00,
2013-01-14 18:46:00,24.9,19.6,30.44,WNW,299,0.0,2.0,80,0.00,,---,0.00,VWS V14.01,2013-01-15 00:46:00,
2013-01-14 18:51:00,24.8,19.5,30.44,WNW,300,0.0,2.0,80,0.00,,---,0.00,VWS V14.01,2013-01-15 00:51:00,
2013-01-14 18:56:00,24.7,19.7,30.44,WNW,290,0.0,2.0,81,0.00,,---,0.00,VWS V14.01,2013-01-15 00:56:00,
2013-01-14 19:00:00,24.7,19.7,30.44,WNW,290,0.0,2.0,81,0.00,,---,0.00,VWS V14.01,2013-01-15 01:00:00,
2013-01-14 19:01:00,24.6,19.6,30.44,WNW,290,0.0,0.0,81,0.00,,---,0.00,VWS V14.01,2013-01-15 01:01:00,
2013-01-14 19:06:00,24.5,19.8,30.44,SE,130,0.0,0.0,82,0.00,,---,0.00,VWS V14.01,2013-01-15 01:06:00,
2013-01-14 19:11:00,24.6,19.9,30.44,NW,319,0.0,1.0,82,0.00,,---,0.00,VWS V14.01,2013-01-15 01:11:00,
2013-01-14 19:16:00,24.5,19.5,30.44,NW,319,0.0,1.0,81,0.00,,---,0.00,VWS V14.01,2013-01-15 01:16:00,
2013-01-14 19:21:00,24.5,19.5,30.43,NW,319,0.0,1.0,81,0.00,,---,0.00,VWS V14.01,2013-01-15 01:21:00,
2013-01-14 19:26:00,24.5,19.5,30.43,NW,319,0.0,1.0,81,0.00,,---,0.00,VWS V14.01,2013-01-15 01:26:00,
2013-01-14 19:30:00,24.5,19.5,30.43,WSW,245,0.0,1.0,81,0.00,,---,0.00,VWS V14.01,2013-01-15 01:30:00,
2013-01-14 19:31:00,24.5,19.8,30.43,WSW,245,0.0,0.0,82,0.00,,---,0.00,VWS V14.01,2013-01-15 01:31:00,
2013-01-14 19:36:00,24.4,19.4,30.43,WSW,245,0.0,0.0,81,0.00,,---,0.00,VWS V14.01,2013-01-15 01:36:00,
2013-01-14 19:41:00,24.3,19.6,30.43,WNW,300,0.0,0.0,82,0.00,,---,0.00,VWS V14.01,2013-01-15 01:41:00,
2013-01-14 19:46:00,24.2,19.5,30.43,WNW,299,0.0,0.0,82,0.00,,---,0.00,VWS V14.01,2013-01-15 01:46:00,
2013-01-14 19:51:00,23.9,19.2,30.43,WNW,300,0.0,0.0,82,0.00,,---,0.00,VWS V14.01,2013-01-15 01:51:00,
2013-01-14 19:56:00,23.6,18.9,30.43,SW,221,0.0,2.0,82,0.00,,---,0.00,VWS V14.01,2013-01-15 01:56:00,
2013-01-14 20:00:00,23.5,18.8,30.43,SW,223,0.0,2.0,82,0.00,,---,0.00,VWS V14.01,2013-01-15 02:00:00,
2013-01-14 20:01:00,23.4,19.0,30.43,SW,223,0.0,0.0,83,0.00,,---,0.00,VWS V14.01,2013-01-15 02:01:00,
2013-01-14 20:06:00,22.9,18.2,30.43,SW,222,0.0,0.0,82,0.00,,---,0.00,VWS V14.01,2013-01-15 02:06:00,
2013-01-14 20:11:00,22.4,18.0,30.43,SW,222,0.0,0.0,83,0.00,,---,0.00,VWS V14.01,2013-01-15 02:11:00,
2013-01-14 20:16:00,22.0,17.9,30.44,SW,222,0.0,0.0,84,0.00,,---,0.00,VWS V14.01,2013-01-15 02:16:00,
2013-01-14 20:21:00,21.5,17.4,30.44,SW,223,0.0,0.0,84,0.00,,---,0.00,VWS V14.01,2013-01-15 02:21:00,
2013-01-14 20:26:00,21.1,17.3,30.44,SW,223,0.0,0.0,85,0.00,,---,0.00,VWS V14.01,2013-01-15 02:26:00,
2013-01-14 20:30:00,20.9,17.1,30.44,SW,223,0.0,0.0,85,0.00,,---,0.00,VWS V14.01,2013-01-15 02:30:00,
2013-01-14 20:31:00,20.7,17.2,30.44,SW,223,0.0,0.0,86,0.00,,---,0.00,VWS V14.01,2013-01-15 02:31:00,
2013-01-14 20:36:00,20.8,17.8,30.44,SW,222,0.0,0.0,88,0.00,,---,0.00,VWS V14.01,2013-01-15 02:36:00,
2013-01-14 20:41:00,20.6,17.4,30.44,SW,223,0.0,0.0,87,0.00,,---,0.00,VWS V14.01,2013-01-15 02:41:00,
2013-01-14 20:46:00,20.1,16.9,30.44,SW,223,0.0,0.0,87,0.00,,---,0.00,VWS V14.01,2013-01-15 02:46:00,
2013-01-14 20:51:00,20.1,17.1,30.44,SW,223,0.0,0.0,88,0.00,,---,0.00,VWS V14.01,2013-01-15 02:51:00,
2013-01-14 20:56:00,20.3,17.8,30.44,SW,223,0.0,0.0,90,0.00,,---,0.00,VWS V14.01,2013-01-15 02:56:00,
2013-01-14 21:00:00,20.4,17.9,30.43,SW,222,0.0,0.0,90,0.00,,---,0.00,VWS V14.01,2013-01-15 03:00:00,
2013-01-14 21:01:00,20.5,18.0,30.43,SW,222,0.0,0.0,90,0.00,,---,0.00,VWS V14.01,2013-01-15 03:01:00,
2013-01-14 21:06:00,20.4,17.9,30.43,SW,222,0.0,0.0,90,0.00,,---,0.00,VWS V14.01,2013-01-15 03:06:00,
2013-01-14 21:11:00,20.1,17.6,30.43,SW,223,0.0,0.0,90,0.00,,---,0.00,VWS V14.01,2013-01-15 03:11:00,
2013-01-14 21:16:00,19.8,17.6,30.42,SW,222,0.0,0.0,91,0.00,,---,0.00,VWS V14.01,2013-01-15 03:16:00,
2013-01-14 21:21:00,19.6,17.7,30.42,SW,222,0.0,0.0,92,0.00,,---,0.00,VWS V14.01,2013-01-15 03:21:00,
2013-01-14 21:26:00,19.6,17.7,30.42,SW,222,0.0,0.0,92,0.00,,---,0.00,VWS V14.01,2013-01-15 03:26:00,
2013-01-14 21:30:00,19.5,17.6,30.42,SW,222,0.0,0.0,92,0.00,,---,0.00,VWS V14.01,2013-01-15 03:30:00,
2013-01-14 21:31:00,19.3,17.4,30.42,SW,223,0.0,0.0,92,0.00,,---,0.00,VWS V14.01,2013-01-15 03:31:00,
2013-01-14 21:36:00,19.0,17.1,30.42,SW,222,0.0,0.0,92,0.00,,---,0.00,VWS V14.01,2013-01-15 03:36:00,
2013-01-14 21:41:00,18.9,17.2,30.43,SW,222,0.0,0.0,93,0.00,,---,0.00,VWS V14.01,2013-01-15 03:41:00,
2013-01-14 21:46:00,19.0,17.3,30.43,SW,222,0.0,0.0,93,0.00,,---,0.00,VWS V14.01,2013-01-15 03:46:00,
2013-01-14 21:51:00,18.8,17.1,30.43,SW,222,0.0,0.0,93,0.00,,---,0.00,VWS V14.01,2013-01-15 03:51:00,
2013-01-14 21:56:00,18.3,16.6,30.43,SW,222,0.0,0.0,93,0.00,,---,0.00,VWS V14.01,2013-01-15 03:56:00,
2013-01-14 22:00:00,18.3,16.6,30.43,SW,222,0.0,0.0,93,0.00,,---,0.00,VWS V14.01,2013-01-15 04:00:00,
2013-01-14 22:01:00,18.3,16.9,30.43,SW,222,0.0,0.0,94,0.00,,---,0.00,VWS V14.01,2013-01-15 04:01:00,
2013-01-14 22:06:00,18.2,16.8,30.43,SW,222,0.0,0.0,94,0.00,,---,0.00,VWS V14.01,2013-01-15 04:06:00,
2013-01-14 22:11:00,18.0,16.6,30.43,SW,223,0.0,0.0,94,0.00,,---,0.00,VWS V14.01,2013-01-15 04:11:00,
2013-01-14 22:16:00,17.9,16.5,30.43,SW,222,0.0,0.0,94,0.00,,---,0.00,VWS V14.01,2013-01-15 04:16:00,
2013-01-14 22:21:00,17.8,16.4,30.43,SW,222,0.0,0.0,94,0.00,,---,0.00,VWS V14.01,2013-01-15 04:21:00,
2013-01-14 22:26:00,17.6,16.2,30.43,SW,222,0.0,0.0,94,0.00,,---,0.00,VWS V14.01,2013-01-15 04:26:00,
2013-01-14 22:30:00,17.5,16.1,30.44,SW,222,0.0,0.0,94,0.00,,---,0.00,VWS V14.01,2013-01-15 04:30:00,
2013-01-14 22:31:00,17.5,16.1,30.44,SW,222,0.0,0.0,94,0.00,,---,0.00,VWS V14.01,2013-01-15 04:31:00,
2013-01-14 22:36:00,17.5,16.3,30.44,SW,222,0.0,0.0,95,0.00,,---,0.00,VWS V14.01,2013-01-15 04:36:00,
2013-01-14 22:41:00,17.3,16.1,30.43,SW,222,0.0,0.0,95,0.00,,---,0.00,VWS V14.01,2013-01-15 04:41:00,
2013-01-14 22:46:00,17.4,16.2,30.43,SW,222,0.0,0.0,95,0.00,,---,0.00,VWS V14.01,2013-01-15 04:46:00,
2013-01-14 22:51:00,17.5,16.3,30.43,SW,222,0.0,0.0,95,0.00,,---,0.00,VWS V14.01,2013-01-15 04:51:00,
2013-01-14 22:56:00,17.2,15.8,30.44,SW,222,0.0,0.0,94,0.00,,---,0.00,VWS V14.01,2013-01-15 04:56:00,
2013-01-14 23:00:00,17.2,16.0,30.44,SW,222,0.0,0.0,95,0.00,,---,0.00,VWS V14.01,2013-01-15 05:00:00,
2013-01-14 23:05:00,17.4,16.2,30.45,SW,222,0.0,0.0,95,0.00,,---,0.00,VWS V14.01,2013-01-15 05:05:00,
2013-01-14 23:10:00,17.3,16.1,30.45,SW,222,0.0,0.0,95,0.00,,---,0.00,VWS V14.01,2013-01-15 05:10:00,
2013-01-14 23:15:00,17.0,15.8,30.44,SW,222,0.0,0.0,95,0.00,,---,0.00,VWS V14.01,2013-01-15 05:15:00,
2013-01-14 23:20:00,16.9,15.7,30.44,SW,222,0.0,0.0,95,0.00,,---,0.00,VWS V14.01,2013-01-15 05:20:00,
2013-01-14 23:25:00,16.8,15.6,30.44,SW,222,0.0,0.0,95,0.00,,---,0.00,VWS V14.01,2013-01-15 05:25:00,
2013-01-14 23:30:00,16.8,15.6,30.44,SW,222,0.0,0.0,95,0.00,,---,0.00,VWS V14.01,2013-01-15 05:30:00,
2013-01-14 23:35:00,16.8,15.6,30.44,SW,223,0.0,0.0,95,0.00,,---,0.00,VWS V14.01,2013-01-15 05:35:00,
2013-01-14 23:40:00,16.6,15.4,30.44,SW,222,0.0,0.0,95,0.00,,---,0.00,VWS V14.01,2013-01-15 05:40:00,
2013-01-14 23:45:00,16.3,15.1,30.44,SW,223,0.0,0.0,95,0.00,,---,0.00,VWS V14.01,2013-01-15 05:45:00,
2013-01-14 23:50:00,16.2,15.0,30.44,SW,222,0.0,0.0,95,0.00,,---,0.00,VWS V14.01,2013-01-15 05:50:00,
2013-01-14 23:55:00,16.3,15.1,30.44,SW,222,0.0,0.0,95,0.00,,---,0.00,VWS V14.01,2013-01-15 05:55:00,